sensor_id;sensor_type;location;lat;lon;timestamp;P1;durP1;ratioP1;P2;durP2;ratioP2
10144;SDS011;5113;41.822;23.564;2023-11-21T00:02:50;14.67;;;8.50;;
10144;SDS011;5113;41.822;23.564;2023-11-21T00:05:57;16.60;;;9.77;;
10144;SDS011;5113;41.822;23.564;2023-11-21T00:09:05;18.57;;;8.50;;
10144;SDS011;5113;41.822;23.564;2023-11-21T00:12:14;15.37;;;8.40;;
10144;SDS011;5113;41.822;23.564;2023-11-21T00:15:22;15.77;;;9.70;;
10144;SDS011;5113;41.822;23.564;2023-11-21T00:18:28;12.53;;;8.13;;
10144;SDS011;5113;41.822;23.564;2023-11-21T00:21:35;10.30;;;6.80;;
10144;SDS011;5113;41.822;23.564;2023-11-21T00:24:42;13.30;;;7.13;;
10144;SDS011;5113;41.822;23.564;2023-11-21T00:27:50;15.83;;;8.43;;
10144;SDS011;5113;41.822;23.564;2023-11-21T00:30:56;12.17;;;7.90;;
10144;SDS011;5113;41.822;23.564;2023-11-21T00:34:03;20.70;;;10.77;;
10144;SDS011;5113;41.822;23.564;2023-11-21T00:37:10;17.70;;;9.90;;
10144;SDS011;5113;41.822;23.564;2023-11-21T00:40:16;17.47;;;10.50;;
10144;SDS011;5113;41.822;23.564;2023-11-21T00:43:25;15.23;;;8.93;;
10144;SDS011;5113;41.822;23.564;2023-11-21T00:46:32;13.17;;;8.73;;
10144;SDS011;5113;41.822;23.564;2023-11-21T00:49:39;11.50;;;7.63;;
10144;SDS011;5113;41.822;23.564;2023-11-21T00:52:45;14.97;;;7.77;;
10144;SDS011;5113;41.822;23.564;2023-11-21T00:55:52;11.00;;;7.60;;
10144;SDS011;5113;41.822;23.564;2023-11-21T00:59:03;16.77;;;7.67;;
10144;SDS011;5113;41.822;23.564;2023-11-21T01:02:10;16.53;;;9.67;;
10144;SDS011;5113;41.822;23.564;2023-11-21T01:05:16;20.67;;;10.33;;
10144;SDS011;5113;41.822;23.564;2023-11-21T01:08:24;12.40;;;8.23;;
10144;SDS011;5113;41.822;23.564;2023-11-21T01:11:31;13.17;;;7.53;;
10144;SDS011;5113;41.822;23.564;2023-11-21T01:14:42;15.30;;;8.80;;
10144;SDS011;5113;41.822;23.564;2023-11-21T01:17:49;16.03;;;10.17;;
10144;SDS011;5113;41.822;23.564;2023-11-21T01:20:56;39.30;;;19.17;;
10144;SDS011;5113;41.822;23.564;2023-11-21T01:24:03;23.47;;;14.17;;
10144;SDS011;5113;41.822;23.564;2023-11-21T01:27:12;26.93;;;12.83;;
10144;SDS011;5113;41.822;23.564;2023-11-21T01:30:20;14.60;;;8.47;;
10144;SDS011;5113;41.822;23.564;2023-11-21T01:33:26;20.47;;;10.83;;
10144;SDS011;5113;41.822;23.564;2023-11-21T01:36:32;18.80;;;9.83;;
10144;SDS011;5113;41.822;23.564;2023-11-21T01:39:40;10.17;;;6.93;;
10144;SDS011;5113;41.822;23.564;2023-11-21T01:42:46;11.60;;;6.50;;
10144;SDS011;5113;41.822;23.564;2023-11-21T01:45:54;38.00;;;22.63;;
10144;SDS011;5113;41.822;23.564;2023-11-21T01:49:01;14.13;;;7.60;;
10144;SDS011;5113;41.822;23.564;2023-11-21T01:52:08;13.83;;;9.47;;
10144;SDS011;5113;41.822;23.564;2023-11-21T01:55:16;12.43;;;8.00;;
10144;SDS011;5113;41.822;23.564;2023-11-21T01:58:30;9.90;;;7.43;;
10144;SDS011;5113;41.822;23.564;2023-11-21T02:01:39;8.10;;;6.40;;
10144;SDS011;5113;41.822;23.564;2023-11-21T02:04:46;9.03;;;6.73;;
10144;SDS011;5113;41.822;23.564;2023-11-21T02:07:52;9.33;;;6.73;;
10144;SDS011;5113;41.822;23.564;2023-11-21T02:10:59;9.13;;;6.20;;
10144;SDS011;5113;41.822;23.564;2023-11-21T02:14:07;10.63;;;6.60;;
10144;SDS011;5113;41.822;23.564;2023-11-21T02:17:15;11.23;;;7.03;;
10144;SDS011;5113;41.822;23.564;2023-11-21T02:20:22;12.13;;;7.00;;
10144;SDS011;5113;41.822;23.564;2023-11-21T02:23:32;13.87;;;7.93;;
10144;SDS011;5113;41.822;23.564;2023-11-21T02:26:39;11.40;;;7.23;;
10144;SDS011;5113;41.822;23.564;2023-11-21T02:29:46;11.77;;;6.73;;
10144;SDS011;5113;41.822;23.564;2023-11-21T02:32:52;16.70;;;9.37;;
10144;SDS011;5113;41.822;23.564;2023-11-21T02:35:59;10.80;;;7.60;;
10144;SDS011;5113;41.822;23.564;2023-11-21T02:39:07;11.00;;;7.33;;
10144;SDS011;5113;41.822;23.564;2023-11-21T02:42:13;13.30;;;7.63;;
10144;SDS011;5113;41.822;23.564;2023-11-21T02:45:20;8.50;;;6.10;;
10144;SDS011;5113;41.822;23.564;2023-11-21T02:48:27;8.77;;;6.37;;
10144;SDS011;5113;41.822;23.564;2023-11-21T02:51:33;10.17;;;7.03;;
10144;SDS011;5113;41.822;23.564;2023-11-21T02:54:41;9.10;;;6.53;;
10144;SDS011;5113;41.822;23.564;2023-11-21T02:57:47;8.47;;;6.03;;
10144;SDS011;5113;41.822;23.564;2023-11-21T03:00:54;10.73;;;7.07;;
10144;SDS011;5113;41.822;23.564;2023-11-21T03:04:01;11.93;;;6.63;;
10144;SDS011;5113;41.822;23.564;2023-11-21T03:07:09;8.70;;;6.30;;
10144;SDS011;5113;41.822;23.564;2023-11-21T03:10:17;13.50;;;7.27;;
10144;SDS011;5113;41.822;23.564;2023-11-21T03:13:24;11.53;;;6.47;;
10144;SDS011;5113;41.822;23.564;2023-11-21T03:16:31;10.67;;;6.77;;
10144;SDS011;5113;41.822;23.564;2023-11-21T03:19:38;7.73;;;5.93;;
10144;SDS011;5113;41.822;23.564;2023-11-21T03:22:44;15.30;;;6.30;;
10144;SDS011;5113;41.822;23.564;2023-11-21T03:25:52;12.77;;;6.67;;
10144;SDS011;5113;41.822;23.564;2023-11-21T03:28:59;10.60;;;7.73;;
10144;SDS011;5113;41.822;23.564;2023-11-21T03:32:06;9.17;;;7.57;;
10144;SDS011;5113;41.822;23.564;2023-11-21T03:35:13;15.93;;;8.87;;
10144;SDS011;5113;41.822;23.564;2023-11-21T03:38:20;24.17;;;12.13;;
10144;SDS011;5113;41.822;23.564;2023-11-21T03:41:28;21.27;;;11.60;;
10144;SDS011;5113;41.822;23.564;2023-11-21T03:44:34;25.37;;;13.33;;
10144;SDS011;5113;41.822;23.564;2023-11-21T03:47:41;14.20;;;8.50;;
10144;SDS011;5113;41.822;23.564;2023-11-21T03:50:48;10.40;;;7.70;;
10144;SDS011;5113;41.822;23.564;2023-11-21T03:53:54;9.47;;;6.47;;
10144;SDS011;5113;41.822;23.564;2023-11-21T03:57:02;8.43;;;6.23;;
10144;SDS011;5113;41.822;23.564;2023-11-21T04:00:11;7.53;;;6.27;;
10144;SDS011;5113;41.822;23.564;2023-11-21T04:03:18;12.23;;;7.43;;
10144;SDS011;5113;41.822;23.564;2023-11-21T04:06:24;20.50;;;13.17;;
10144;SDS011;5113;41.822;23.564;2023-11-21T04:09:31;23.77;;;12.60;;
10144;SDS011;5113;41.822;23.564;2023-11-21T04:12:39;16.17;;;11.37;;
10144;SDS011;5113;41.822;23.564;2023-11-21T04:15:45;20.40;;;14.53;;
10144;SDS011;5113;41.822;23.564;2023-11-21T04:18:52;26.73;;;16.30;;
10144;SDS011;5113;41.822;23.564;2023-11-21T04:21:58;33.87;;;18.17;;
10144;SDS011;5113;41.822;23.564;2023-11-21T04:25:05;21.90;;;10.93;;
10144;SDS011;5113;41.822;23.564;2023-11-21T04:28:13;15.50;;;8.87;;
10144;SDS011;5113;41.822;23.564;2023-11-21T04:31:20;14.83;;;9.13;;
10144;SDS011;5113;41.822;23.564;2023-11-21T04:34:26;17.47;;;9.77;;
10144;SDS011;5113;41.822;23.564;2023-11-21T04:37:34;22.47;;;12.50;;
10144;SDS011;5113;41.822;23.564;2023-11-21T04:40:41;53.33;;;29.90;;
10144;SDS011;5113;41.822;23.564;2023-11-21T04:43:49;16.60;;;10.93;;
10144;SDS011;5113;41.822;23.564;2023-11-21T04:46:55;12.37;;;8.70;;
10144;SDS011;5113;41.822;23.564;2023-11-21T04:50:02;17.77;;;9.57;;
10144;SDS011;5113;41.822;23.564;2023-11-21T04:53:09;17.50;;;10.20;;
10144;SDS011;5113;41.822;23.564;2023-11-21T04:56:17;16.00;;;9.07;;
10144;SDS011;5113;41.822;23.564;2023-11-21T04:59:25;14.43;;;9.43;;
10144;SDS011;5113;41.822;23.564;2023-11-21T05:02:31;12.93;;;8.07;;
10144;SDS011;5113;41.822;23.564;2023-11-21T05:05:40;12.63;;;8.30;;
10144;SDS011;5113;41.822;23.564;2023-11-21T05:08:46;17.10;;;10.37;;
10144;SDS011;5113;41.822;23.564;2023-11-21T05:11:52;14.87;;;9.73;;
10144;SDS011;5113;41.822;23.564;2023-11-21T05:15:01;14.50;;;9.87;;
10144;SDS011;5113;41.822;23.564;2023-11-21T05:18:12;16.83;;;10.13;;
10144;SDS011;5113;41.822;23.564;2023-11-21T05:21:18;16.60;;;9.40;;
10144;SDS011;5113;41.822;23.564;2023-11-21T05:24:25;16.43;;;12.40;;
10144;SDS011;5113;41.822;23.564;2023-11-21T05:27:33;18.27;;;12.63;;
10144;SDS011;5113;41.822;23.564;2023-11-21T05:30:41;80.10;;;39.43;;
10144;SDS011;5113;41.822;23.564;2023-11-21T05:33:48;63.37;;;30.97;;
10144;SDS011;5113;41.822;23.564;2023-11-21T05:36:54;62.50;;;31.67;;
10144;SDS011;5113;41.822;23.564;2023-11-21T05:40:03;76.53;;;37.83;;
10144;SDS011;5113;41.822;23.564;2023-11-21T05:43:11;68.87;;;31.77;;
10144;SDS011;5113;41.822;23.564;2023-11-21T05:46:19;34.17;;;22.30;;
10144;SDS011;5113;41.822;23.564;2023-11-21T05:49:26;36.10;;;20.37;;
10144;SDS011;5113;41.822;23.564;2023-11-21T05:52:34;35.97;;;19.00;;
10144;SDS011;5113;41.822;23.564;2023-11-21T05:55:40;62.37;;;34.23;;
10144;SDS011;5113;41.822;23.564;2023-11-21T05:58:46;55.07;;;31.33;;
10144;SDS011;5113;41.822;23.564;2023-11-21T06:01:55;67.03;;;38.47;;
10144;SDS011;5113;41.822;23.564;2023-11-21T06:05:01;84.03;;;43.53;;
10144;SDS011;5113;41.822;23.564;2023-11-21T06:08:09;62.93;;;37.83;;
10144;SDS011;5113;41.822;23.564;2023-11-21T06:11:15;86.13;;;38.67;;
10144;SDS011;5113;41.822;23.564;2023-11-21T06:14:21;74.73;;;38.03;;
10144;SDS011;5113;41.822;23.564;2023-11-21T06:17:29;75.70;;;40.27;;
10144;SDS011;5113;41.822;23.564;2023-11-21T06:20:36;81.10;;;43.53;;
10144;SDS011;5113;41.822;23.564;2023-11-21T06:23:43;165.97;;;78.00;;
10144;SDS011;5113;41.822;23.564;2023-11-21T06:26:49;143.97;;;64.77;;
10144;SDS011;5113;41.822;23.564;2023-11-21T06:29:56;115.20;;;54.23;;
10144;SDS011;5113;41.822;23.564;2023-11-21T06:33:04;117.67;;;58.60;;
10144;SDS011;5113;41.822;23.564;2023-11-21T06:36:11;79.40;;;42.93;;
10144;SDS011;5113;41.822;23.564;2023-11-21T06:39:17;74.33;;;40.57;;
10144;SDS011;5113;41.822;23.564;2023-11-21T06:42:27;43.17;;;26.40;;
10144;SDS011;5113;41.822;23.564;2023-11-21T06:45:34;53.30;;;27.70;;
10144;SDS011;5113;41.822;23.564;2023-11-21T06:48:43;40.40;;;23.93;;
10144;SDS011;5113;41.822;23.564;2023-11-21T06:51:50;47.87;;;29.87;;
10144;SDS011;5113;41.822;23.564;2023-11-21T06:54:58;53.50;;;31.67;;
10144;SDS011;5113;41.822;23.564;2023-11-21T06:58:04;64.37;;;36.00;;
10144;SDS011;5113;41.822;23.564;2023-11-21T07:01:11;69.63;;;38.43;;
10144;SDS011;5113;41.822;23.564;2023-11-21T07:04:19;91.97;;;46.63;;
10144;SDS011;5113;41.822;23.564;2023-11-21T07:07:25;78.83;;;41.37;;
10144;SDS011;5113;41.822;23.564;2023-11-21T07:10:33;92.07;;;47.27;;
10144;SDS011;5113;41.822;23.564;2023-11-21T07:13:40;83.70;;;46.63;;
10144;SDS011;5113;41.822;23.564;2023-11-21T07:16:46;79.80;;;45.47;;
10144;SDS011;5113;41.822;23.564;2023-11-21T07:19:54;92.63;;;46.70;;
10144;SDS011;5113;41.822;23.564;2023-11-21T07:23:00;109.63;;;53.03;;
10144;SDS011;5113;41.822;23.564;2023-11-21T07:26:08;82.27;;;44.57;;
10144;SDS011;5113;41.822;23.564;2023-11-21T07:29:15;84.63;;;46.43;;
10144;SDS011;5113;41.822;23.564;2023-11-21T07:32:22;91.77;;;46.47;;
10144;SDS011;5113;41.822;23.564;2023-11-21T07:35:29;72.00;;;43.43;;
10144;SDS011;5113;41.822;23.564;2023-11-21T07:38:36;114.87;;;57.47;;
10144;SDS011;5113;41.822;23.564;2023-11-21T07:41:42;103.17;;;55.57;;
10144;SDS011;5113;41.822;23.564;2023-11-21T07:44:53;130.90;;;67.83;;
10144;SDS011;5113;41.822;23.564;2023-11-21T07:48:01;130.13;;;61.63;;
10144;SDS011;5113;41.822;23.564;2023-11-21T07:51:11;119.43;;;56.37;;
10144;SDS011;5113;41.822;23.564;2023-11-21T07:54:18;86.77;;;38.00;;
10144;SDS011;5113;41.822;23.564;2023-11-21T07:57:26;37.43;;;22.00;;
10144;SDS011;5113;41.822;23.564;2023-11-21T08:00:33;45.30;;;27.60;;
10144;SDS011;5113;41.822;23.564;2023-11-21T08:03:39;61.53;;;31.17;;
10144;SDS011;5113;41.822;23.564;2023-11-21T08:06:47;57.50;;;33.83;;
10144;SDS011;5113;41.822;23.564;2023-11-21T08:09:53;72.80;;;37.43;;
10144;SDS011;5113;41.822;23.564;2023-11-21T08:13:01;76.10;;;41.67;;
10144;SDS011;5113;41.822;23.564;2023-11-21T08:16:08;120.27;;;58.37;;
10144;SDS011;5113;41.822;23.564;2023-11-21T08:19:15;103.63;;;56.27;;
10144;SDS011;5113;41.822;23.564;2023-11-21T08:22:24;56.77;;;33.53;;
10144;SDS011;5113;41.822;23.564;2023-11-21T08:25:30;61.50;;;32.07;;
10144;SDS011;5113;41.822;23.564;2023-11-21T08:28:39;53.20;;;31.17;;
10144;SDS011;5113;41.822;23.564;2023-11-21T08:31:46;51.20;;;30.30;;
10144;SDS011;5113;41.822;23.564;2023-11-21T08:34:53;54.90;;;31.37;;
10144;SDS011;5113;41.822;23.564;2023-11-21T08:38:02;55.70;;;34.67;;
10144;SDS011;5113;41.822;23.564;2023-11-21T08:41:08;70.70;;;36.57;;
10144;SDS011;5113;41.822;23.564;2023-11-21T08:44:15;58.90;;;30.83;;
10144;SDS011;5113;41.822;23.564;2023-11-21T08:47:22;46.40;;;26.80;;
10144;SDS011;5113;41.822;23.564;2023-11-21T08:50:31;31.90;;;19.63;;
10144;SDS011;5113;41.822;23.564;2023-11-21T08:53:40;25.27;;;16.47;;
10144;SDS011;5113;41.822;23.564;2023-11-21T08:56:46;27.73;;;17.43;;
10144;SDS011;5113;41.822;23.564;2023-11-21T08:59:53;33.00;;;18.20;;
10144;SDS011;5113;41.822;23.564;2023-11-21T09:03:01;28.53;;;17.60;;
10144;SDS011;5113;41.822;23.564;2023-11-21T09:06:08;27.13;;;16.13;;
10144;SDS011;5113;41.822;23.564;2023-11-21T09:09:17;35.20;;;21.63;;
10144;SDS011;5113;41.822;23.564;2023-11-21T09:12:25;43.23;;;21.50;;
10144;SDS011;5113;41.822;23.564;2023-11-21T09:15:32;48.43;;;25.90;;
10144;SDS011;5113;41.822;23.564;2023-11-21T09:18:38;39.87;;;22.40;;
10144;SDS011;5113;41.822;23.564;2023-11-21T09:21:45;33.73;;;21.67;;
10144;SDS011;5113;41.822;23.564;2023-11-21T09:24:53;25.20;;;17.10;;
10144;SDS011;5113;41.822;23.564;2023-11-21T09:28:01;29.20;;;18.33;;
10144;SDS011;5113;41.822;23.564;2023-11-21T09:31:09;26.37;;;14.67;;
10144;SDS011;5113;41.822;23.564;2023-11-21T09:34:16;33.03;;;18.33;;
10144;SDS011;5113;41.822;23.564;2023-11-21T09:37:22;20.13;;;10.40;;
10144;SDS011;5113;41.822;23.564;2023-11-21T09:40:33;21.53;;;12.30;;
10144;SDS011;5113;41.822;23.564;2023-11-21T09:43:40;10.23;;;7.67;;
10144;SDS011;5113;41.822;23.564;2023-11-21T09:46:47;17.43;;;9.53;;
10144;SDS011;5113;41.822;23.564;2023-11-21T09:49:55;14.63;;;9.00;;
10144;SDS011;5113;41.822;23.564;2023-11-21T09:53:08;10.13;;;7.27;;
10144;SDS011;5113;41.822;23.564;2023-11-21T09:56:22;15.30;;;8.47;;
10144;SDS011;5113;41.822;23.564;2023-11-21T09:59:31;16.07;;;9.93;;
10144;SDS011;5113;41.822;23.564;2023-11-21T10:02:38;20.67;;;13.83;;
10144;SDS011;5113;41.822;23.564;2023-11-21T10:05:47;22.53;;;13.13;;
10144;SDS011;5113;41.822;23.564;2023-11-21T10:08:57;19.93;;;11.73;;
10144;SDS011;5113;41.822;23.564;2023-11-21T10:12:07;22.53;;;14.63;;
10144;SDS011;5113;41.822;23.564;2023-11-21T10:15:15;28.10;;;16.30;;
10144;SDS011;5113;41.822;23.564;2023-11-21T10:18:23;20.83;;;13.20;;
10144;SDS011;5113;41.822;23.564;2023-11-21T10:21:31;18.30;;;11.20;;
10144;SDS011;5113;41.822;23.564;2023-11-21T10:24:39;19.23;;;11.60;;
10144;SDS011;5113;41.822;23.564;2023-11-21T10:27:59;22.03;;;12.43;;
10144;SDS011;5113;41.822;23.564;2023-11-21T10:31:10;20.80;;;12.00;;
10144;SDS011;5113;41.822;23.564;2023-11-21T10:34:18;8.30;;;6.60;;
10144;SDS011;5113;41.822;23.564;2023-11-21T10:37:26;10.83;;;6.50;;
10144;SDS011;5113;41.822;23.564;2023-11-21T10:40:32;10.10;;;5.73;;
10144;SDS011;5113;41.822;23.564;2023-11-21T10:43:40;8.20;;;5.20;;
10144;SDS011;5113;41.822;23.564;2023-11-21T10:46:49;6.77;;;4.87;;
10144;SDS011;5113;41.822;23.564;2023-11-21T10:49:56;5.80;;;4.47;;
10144;SDS011;5113;41.822;23.564;2023-11-21T10:53:03;7.33;;;5.13;;
10144;SDS011;5113;41.822;23.564;2023-11-21T10:56:10;27.53;;;13.10;;
10144;SDS011;5113;41.822;23.564;2023-11-21T10:59:23;15.40;;;8.30;;
10144;SDS011;5113;41.822;23.564;2023-11-21T11:02:34;17.57;;;10.20;;
10144;SDS011;5113;41.822;23.564;2023-11-21T11:05:41;18.73;;;11.73;;
10144;SDS011;5113;41.822;23.564;2023-11-21T11:08:57;12.43;;;8.00;;
10144;SDS011;5113;41.822;23.564;2023-11-21T11:12:04;10.57;;;5.23;;
10144;SDS011;5113;41.822;23.564;2023-11-21T11:15:13;14.93;;;9.60;;
10144;SDS011;5113;41.822;23.564;2023-11-21T11:18:20;13.37;;;9.73;;
10144;SDS011;5113;41.822;23.564;2023-11-21T11:21:31;15.43;;;9.93;;
10144;SDS011;5113;41.822;23.564;2023-11-21T11:24:53;12.80;;;7.40;;
10144;SDS011;5113;41.822;23.564;2023-11-21T11:28:19;12.23;;;9.03;;
10144;SDS011;5113;41.822;23.564;2023-11-21T11:31:31;17.67;;;8.70;;
10144;SDS011;5113;41.822;23.564;2023-11-21T11:34:48;8.63;;;5.90;;
10144;SDS011;5113;41.822;23.564;2023-11-21T11:38:05;12.77;;;9.63;;
10144;SDS011;5113;41.822;23.564;2023-11-21T11:41:13;13.03;;;7.73;;
10144;SDS011;5113;41.822;23.564;2023-11-21T11:47:59;6.80;;;5.83;;
10144;SDS011;5113;41.822;23.564;2023-11-21T11:51:06;11.23;;;7.20;;
10144;SDS011;5113;41.822;23.564;2023-11-21T11:54:20;11.83;;;7.80;;
10144;SDS011;5113;41.822;23.564;2023-11-21T11:57:41;14.03;;;9.47;;
10144;SDS011;5113;41.822;23.564;2023-11-21T12:00:48;16.17;;;8.23;;
10144;SDS011;5113;41.822;23.564;2023-11-21T12:07:42;9.57;;;7.17;;
10144;SDS011;5113;41.822;23.564;2023-11-21T12:10:50;12.53;;;9.13;;
10144;SDS011;5113;41.822;23.564;2023-11-21T12:13:59;21.60;;;11.00;;
10144;SDS011;5113;41.822;23.564;2023-11-21T12:17:05;7.77;;;5.13;;
10144;SDS011;5113;41.822;23.564;2023-11-21T12:20:20;6.77;;;5.37;;
10144;SDS011;5113;41.822;23.564;2023-11-21T12:23:29;5.20;;;3.70;;
10144;SDS011;5113;41.822;23.564;2023-11-21T12:26:36;5.83;;;5.33;;
10144;SDS011;5113;41.822;23.564;2023-11-21T12:29:42;8.43;;;5.83;;
10144;SDS011;5113;41.822;23.564;2023-11-21T12:32:49;9.70;;;6.63;;
10144;SDS011;5113;41.822;23.564;2023-11-21T12:35:59;9.10;;;6.70;;
10144;SDS011;5113;41.822;23.564;2023-11-21T12:39:05;8.83;;;5.30;;
10144;SDS011;5113;41.822;23.564;2023-11-21T12:42:13;14.17;;;10.10;;
10144;SDS011;5113;41.822;23.564;2023-11-21T12:45:21;28.77;;;13.80;;
10144;SDS011;5113;41.822;23.564;2023-11-21T12:48:31;21.73;;;12.37;;
10144;SDS011;5113;41.822;23.564;2023-11-21T12:51:39;15.67;;;10.03;;
10144;SDS011;5113;41.822;23.564;2023-11-21T12:54:46;23.97;;;12.23;;
10144;SDS011;5113;41.822;23.564;2023-11-21T12:57:54;8.77;;;5.70;;
10144;SDS011;5113;41.822;23.564;2023-11-21T13:01:02;16.87;;;8.57;;
10144;SDS011;5113;41.822;23.564;2023-11-21T13:04:09;34.40;;;17.63;;
10144;SDS011;5113;41.822;23.564;2023-11-21T13:07:18;16.53;;;9.60;;
10144;SDS011;5113;41.822;23.564;2023-11-21T13:10:27;6.63;;;4.60;;
10144;SDS011;5113;41.822;23.564;2023-11-21T13:13:35;15.50;;;6.63;;
10144;SDS011;5113;41.822;23.564;2023-11-21T13:16:43;13.07;;;7.20;;
10144;SDS011;5113;41.822;23.564;2023-11-21T13:19:51;40.63;;;19.57;;
10144;SDS011;5113;41.822;23.564;2023-11-21T13:23:06;19.40;;;10.80;;
10144;SDS011;5113;41.822;23.564;2023-11-21T13:26:13;14.30;;;9.57;;
10144;SDS011;5113;41.822;23.564;2023-11-21T13:29:20;17.30;;;12.20;;
10144;SDS011;5113;41.822;23.564;2023-11-21T13:32:27;12.17;;;8.20;;
10144;SDS011;5113;41.822;23.564;2023-11-21T13:35:34;8.93;;;5.97;;
10144;SDS011;5113;41.822;23.564;2023-11-21T13:38:47;20.60;;;12.03;;
10144;SDS011;5113;41.822;23.564;2023-11-21T13:41:55;29.23;;;16.87;;
10144;SDS011;5113;41.822;23.564;2023-11-21T13:45:02;51.93;;;28.83;;
10144;SDS011;5113;41.822;23.564;2023-11-21T13:48:10;42.20;;;23.73;;
10144;SDS011;5113;41.822;23.564;2023-11-21T13:51:19;48.57;;;28.73;;
10144;SDS011;5113;41.822;23.564;2023-11-21T13:54:35;48.10;;;28.43;;
10144;SDS011;5113;41.822;23.564;2023-11-21T13:57:42;55.87;;;35.17;;
10144;SDS011;5113;41.822;23.564;2023-11-21T14:00:51;33.23;;;22.07;;
10144;SDS011;5113;41.822;23.564;2023-11-21T14:04:02;31.47;;;21.00;;
10144;SDS011;5113;41.822;23.564;2023-11-21T14:07:23;44.80;;;23.63;;
10144;SDS011;5113;41.822;23.564;2023-11-21T14:10:41;42.50;;;23.00;;
10144;SDS011;5113;41.822;23.564;2023-11-21T14:13:49;31.50;;;21.53;;
10144;SDS011;5113;41.822;23.564;2023-11-21T14:16:56;34.83;;;21.03;;
10144;SDS011;5113;41.822;23.564;2023-11-21T14:20:04;39.23;;;23.37;;
10144;SDS011;5113;41.822;23.564;2023-11-21T14:23:19;37.53;;;23.43;;
10144;SDS011;5113;41.822;23.564;2023-11-21T14:26:29;41.20;;;25.67;;
10144;SDS011;5113;41.822;23.564;2023-11-21T14:29:36;20.67;;;13.13;;
10144;SDS011;5113;41.822;23.564;2023-11-21T14:32:48;23.93;;;15.27;;
10144;SDS011;5113;41.822;23.564;2023-11-21T14:35:55;36.40;;;20.63;;
10144;SDS011;5113;41.822;23.564;2023-11-21T14:39:03;30.03;;;17.93;;
10144;SDS011;5113;41.822;23.564;2023-11-21T14:42:14;30.67;;;17.67;;
10144;SDS011;5113;41.822;23.564;2023-11-21T14:45:26;25.77;;;17.53;;
10144;SDS011;5113;41.822;23.564;2023-11-21T14:48:34;28.23;;;16.40;;
10144;SDS011;5113;41.822;23.564;2023-11-21T14:51:47;30.90;;;17.43;;
10144;SDS011;5113;41.822;23.564;2023-11-21T14:55:05;48.63;;;27.80;;
10144;SDS011;5113;41.822;23.564;2023-11-21T14:58:37;48.73;;;30.20;;
10144;SDS011;5113;41.822;23.564;2023-11-21T15:01:44;72.23;;;35.43;;
10144;SDS011;5113;41.822;23.564;2023-11-21T15:04:58;59.40;;;31.73;;
10144;SDS011;5113;41.822;23.564;2023-11-21T15:08:07;133.67;;;59.17;;
10144;SDS011;5113;41.822;23.564;2023-11-21T15:11:26;124.50;;;54.43;;
10144;SDS011;5113;41.822;23.564;2023-11-21T15:14:37;87.90;;;45.77;;
10144;SDS011;5113;41.822;23.564;2023-11-21T15:17:43;93.80;;;47.37;;
10144;SDS011;5113;41.822;23.564;2023-11-21T15:20:50;84.27;;;42.63;;
10144;SDS011;5113;41.822;23.564;2023-11-21T15:23:57;85.33;;;45.10;;
10144;SDS011;5113;41.822;23.564;2023-11-21T15:27:04;102.70;;;55.23;;
10144;SDS011;5113;41.822;23.564;2023-11-21T15:30:13;90.10;;;45.10;;
10144;SDS011;5113;41.822;23.564;2023-11-21T15:33:20;96.83;;;45.53;;
10144;SDS011;5113;41.822;23.564;2023-11-21T15:36:26;96.90;;;48.13;;
10144;SDS011;5113;41.822;23.564;2023-11-21T15:39:33;112.23;;;54.17;;
10144;SDS011;5113;41.822;23.564;2023-11-21T15:42:39;107.70;;;47.70;;
10144;SDS011;5113;41.822;23.564;2023-11-21T15:45:47;80.03;;;43.83;;
10144;SDS011;5113;41.822;23.564;2023-11-21T15:48:54;83.37;;;41.60;;
10144;SDS011;5113;41.822;23.564;2023-11-21T15:52:00;101.70;;;47.53;;
10144;SDS011;5113;41.822;23.564;2023-11-21T15:55:07;121.77;;;52.87;;
10144;SDS011;5113;41.822;23.564;2023-11-21T15:58:14;49.23;;;23.87;;
10144;SDS011;5113;41.822;23.564;2023-11-21T16:01:21;82.87;;;37.47;;
10144;SDS011;5113;41.822;23.564;2023-11-21T16:04:30;117.27;;;51.57;;
10144;SDS011;5113;41.822;23.564;2023-11-21T16:07:36;109.40;;;53.33;;
10144;SDS011;5113;41.822;23.564;2023-11-21T16:10:44;119.50;;;55.50;;
10144;SDS011;5113;41.822;23.564;2023-11-21T16:13:50;157.80;;;80.03;;
10144;SDS011;5113;41.822;23.564;2023-11-21T16:16:59;132.43;;;65.73;;
10144;SDS011;5113;41.822;23.564;2023-11-21T16:20:06;124.97;;;65.90;;
10144;SDS011;5113;41.822;23.564;2023-11-21T16:23:15;119.70;;;57.83;;
10144;SDS011;5113;41.822;23.564;2023-11-21T16:26:22;90.93;;;51.83;;
10144;SDS011;5113;41.822;23.564;2023-11-21T16:29:28;86.47;;;42.70;;
10144;SDS011;5113;41.822;23.564;2023-11-21T16:32:38;121.77;;;58.27;;
10144;SDS011;5113;41.822;23.564;2023-11-21T16:35:45;207.30;;;87.20;;
10144;SDS011;5113;41.822;23.564;2023-11-21T16:38:51;187.07;;;80.30;;
10144;SDS011;5113;41.822;23.564;2023-11-21T16:41:58;192.23;;;80.17;;
10144;SDS011;5113;41.822;23.564;2023-11-21T16:45:05;158.90;;;70.60;;
10144;SDS011;5113;41.822;23.564;2023-11-21T16:48:14;133.50;;;59.67;;
10144;SDS011;5113;41.822;23.564;2023-11-21T16:51:21;137.93;;;63.90;;
10144;SDS011;5113;41.822;23.564;2023-11-21T16:54:27;108.33;;;55.97;;
10144;SDS011;5113;41.822;23.564;2023-11-21T16:57:35;133.67;;;59.10;;
10144;SDS011;5113;41.822;23.564;2023-11-21T17:00:43;169.43;;;85.20;;
10144;SDS011;5113;41.822;23.564;2023-11-21T17:03:53;137.70;;;68.43;;
10144;SDS011;5113;41.822;23.564;2023-11-21T17:06:59;127.40;;;55.93;;
10144;SDS011;5113;41.822;23.564;2023-11-21T17:10:06;260.90;;;120.97;;
10144;SDS011;5113;41.822;23.564;2023-11-21T17:13:14;202.17;;;96.17;;
10144;SDS011;5113;41.822;23.564;2023-11-21T17:16:21;149.83;;;75.43;;
10144;SDS011;5113;41.822;23.564;2023-11-21T17:19:28;142.17;;;68.50;;
10144;SDS011;5113;41.822;23.564;2023-11-21T17:22:37;115.10;;;53.57;;
10144;SDS011;5113;41.822;23.564;2023-11-21T17:25:45;128.87;;;58.63;;
10144;SDS011;5113;41.822;23.564;2023-11-21T17:28:51;152.27;;;75.00;;
10144;SDS011;5113;41.822;23.564;2023-11-21T17:31:59;129.80;;;56.30;;
10144;SDS011;5113;41.822;23.564;2023-11-21T17:35:07;83.30;;;42.83;;
10144;SDS011;5113;41.822;23.564;2023-11-21T17:38:14;101.20;;;43.73;;
10144;SDS011;5113;41.822;23.564;2023-11-21T17:41:20;117.97;;;60.33;;
10144;SDS011;5113;41.822;23.564;2023-11-21T17:44:28;98.87;;;44.73;;
10144;SDS011;5113;41.822;23.564;2023-11-21T17:47:34;94.53;;;49.57;;
10144;SDS011;5113;41.822;23.564;2023-11-21T17:50:42;148.50;;;70.40;;
10144;SDS011;5113;41.822;23.564;2023-11-21T17:53:49;163.50;;;75.43;;
10144;SDS011;5113;41.822;23.564;2023-11-21T17:56:56;198.27;;;93.07;;
10144;SDS011;5113;41.822;23.564;2023-11-21T18:00:03;228.17;;;95.93;;
10144;SDS011;5113;41.822;23.564;2023-11-21T18:03:10;207.97;;;106.20;;
10144;SDS011;5113;41.822;23.564;2023-11-21T18:06:19;159.87;;;80.53;;
10144;SDS011;5113;41.822;23.564;2023-11-21T18:09:25;213.70;;;98.67;;
10144;SDS011;5113;41.822;23.564;2023-11-21T18:12:32;192.33;;;88.40;;
10144;SDS011;5113;41.822;23.564;2023-11-21T18:15:39;148.47;;;70.43;;
10144;SDS011;5113;41.822;23.564;2023-11-21T18:18:45;147.80;;;61.13;;
10144;SDS011;5113;41.822;23.564;2023-11-21T18:21:54;174.70;;;75.47;;
10144;SDS011;5113;41.822;23.564;2023-11-21T18:25:00;132.30;;;63.17;;
10144;SDS011;5113;41.822;23.564;2023-11-21T18:28:07;141.57;;;66.57;;
10144;SDS011;5113;41.822;23.564;2023-11-21T18:31:14;144.30;;;70.60;;
10144;SDS011;5113;41.822;23.564;2023-11-21T18:34:22;135.27;;;63.63;;